sensor_id;sensor_type;location;lat;lon;timestamp;temperature;humidity
40257;DHT22;25977;45.462;9.210;2023-09-12T00:01:30;27.50;71.30
40257;DHT22;25977;45.462;9.210;2023-09-12T00:03:58;27.40;71.10
40257;DHT22;25977;45.462;9.210;2023-09-12T00:06:24;27.40;71.30
40257;DHT22;25977;45.462;9.210;2023-09-12T00:08:51;27.40;71.20
40257;DHT22;25977;45.462;9.210;2023-09-12T00:11:18;27.30;71.30
40257;DHT22;25977;45.462;9.210;2023-09-12T00:13:44;27.30;71.40
40257;DHT22;25977;45.462;9.210;2023-09-12T00:16:10;27.30;71.60
40257;DHT22;25977;45.462;9.210;2023-09-12T00:18:39;27.30;71.60
40257;DHT22;25977;45.462;9.210;2023-09-12T00:21:05;27.30;71.90
40257;DHT22;25977;45.462;9.210;2023-09-12T00:23:31;27.30;71.90
40257;DHT22;25977;45.462;9.210;2023-09-12T00:25:57;27.30;71.90
40257;DHT22;25977;45.462;9.210;2023-09-12T00:28:23;27.30;71.90
40257;DHT22;25977;45.462;9.210;2023-09-12T00:30:49;27.30;71.90
40257;DHT22;25977;45.462;9.210;2023-09-12T00:33:15;27.30;71.90
40257;DHT22;25977;45.462;9.210;2023-09-12T00:35:41;27.30;72.00
40257;DHT22;25977;45.462;9.210;2023-09-12T00:38:08;27.30;72.00
40257;DHT22;25977;45.462;9.210;2023-09-12T00:40:34;27.30;72.10
40257;DHT22;25977;45.462;9.210;2023-09-12T00:42:59;27.30;72.20
40257;DHT22;25977;45.462;9.210;2023-09-12T00:45:25;27.30;72.50
40257;DHT22;25977;45.462;9.210;2023-09-12T00:47:52;27.20;72.50
40257;DHT22;25977;45.462;9.210;2023-09-12T00:50:20;27.20;72.80
40257;DHT22;25977;45.462;9.210;2023-09-12T00:52:47;27.20;72.90
40257;DHT22;25977;45.462;9.210;2023-09-12T00:55:14;27.20;73.10
40257;DHT22;25977;45.462;9.210;2023-09-12T00:57:40;27.20;73.20
40257;DHT22;25977;45.462;9.210;2023-09-12T01:00:07;27.20;73.50
40257;DHT22;25977;45.462;9.210;2023-09-12T01:02:44;27.20;73.70
40257;DHT22;25977;45.462;9.210;2023-09-12T01:05:13;27.10;73.70
40257;DHT22;25977;45.462;9.210;2023-09-12T01:07:39;27.10;73.90
40257;DHT22;25977;45.462;9.210;2023-09-12T01:10:06;27.10;74.00
40257;DHT22;25977;45.462;9.210;2023-09-12T01:12:32;27.10;74.10
40257;DHT22;25977;45.462;9.210;2023-09-12T01:14:58;27.10;74.20
40257;DHT22;25977;45.462;9.210;2023-09-12T01:17:24;27.10;74.30
40257;DHT22;25977;45.462;9.210;2023-09-12T01:19:51;27.10;74.30
40257;DHT22;25977;45.462;9.210;2023-09-12T01:28:15;27.00;74.30
40257;DHT22;25977;45.462;9.210;2023-09-12T01:30:42;27.00;74.30
40257;DHT22;25977;45.462;9.210;2023-09-12T01:33:09;27.00;74.30
40257;DHT22;25977;45.462;9.210;2023-09-12T01:35:35;27.00;74.30
40257;DHT22;25977;45.462;9.210;2023-09-12T01:38:01;27.00;74.30
40257;DHT22;25977;45.462;9.210;2023-09-12T01:40:44;27.00;74.20
40257;DHT22;25977;45.462;9.210;2023-09-12T01:43:11;27.00;74.20
40257;DHT22;25977;45.462;9.210;2023-09-12T01:45:40;26.90;74.40
40257;DHT22;25977;45.462;9.210;2023-09-12T01:48:06;26.90;74.40
40257;DHT22;25977;45.462;9.210;2023-09-12T01:50:33;26.90;74.60
40257;DHT22;25977;45.462;9.210;2023-09-12T01:53:01;26.90;75.40
40257;DHT22;25977;45.462;9.210;2023-09-12T01:55:27;26.90;75.10
40257;DHT22;25977;45.462;9.210;2023-09-12T01:57:54;26.90;75.10
40257;DHT22;25977;45.462;9.210;2023-09-12T02:00:21;26.90;75.80
40257;DHT22;25977;45.462;9.210;2023-09-12T02:02:47;26.90;75.30
40257;DHT22;25977;45.462;9.210;2023-09-12T02:05:21;26.90;75.40
40257;DHT22;25977;45.462;9.210;2023-09-12T02:07:48;26.80;75.50
40257;DHT22;25977;45.462;9.210;2023-09-12T02:10:14;26.80;75.70
40257;DHT22;25977;45.462;9.210;2023-09-12T02:12:40;26.80;75.90
40257;DHT22;25977;45.462;9.210;2023-09-12T02:15:07;26.80;75.90
40257;DHT22;25977;45.462;9.210;2023-09-12T02:17:32;26.70;76.10
40257;DHT22;25977;45.462;9.210;2023-09-12T02:19:58;26.70;76.30
40257;DHT22;25977;45.462;9.210;2023-09-12T02:22:24;26.70;76.80
40257;DHT22;25977;45.462;9.210;2023-09-12T02:24:50;26.70;76.80
40257;DHT22;25977;45.462;9.210;2023-09-12T02:27:16;26.70;77.20
40257;DHT22;25977;45.462;9.210;2023-09-12T02:29:42;26.70;77.70
40257;DHT22;25977;45.462;9.210;2023-09-12T02:32:09;26.70;78.10
40257;DHT22;25977;45.462;9.210;2023-09-12T02:34:34;26.60;78.10
40257;DHT22;25977;45.462;9.210;2023-09-12T02:37:00;26.60;78.30
40257;DHT22;25977;45.462;9.210;2023-09-12T02:39:26;26.60;78.30
40257;DHT22;25977;45.462;9.210;2023-09-12T02:41:52;26.60;78.20
40257;DHT22;25977;45.462;9.210;2023-09-12T02:44:17;26.60;78.40
40257;DHT22;25977;45.462;9.210;2023-09-12T02:46:44;26.50;78.70
40257;DHT22;25977;45.462;9.210;2023-09-12T02:49:09;26.50;78.90
40257;DHT22;25977;45.462;9.210;2023-09-12T02:51:38;26.50;79.00
40257;DHT22;25977;45.462;9.210;2023-09-12T02:54:04;26.50;79.60
40257;DHT22;25977;45.462;9.210;2023-09-12T02:56:30;26.50;79.70
40257;DHT22;25977;45.462;9.210;2023-09-12T02:58:56;26.40;79.70
40257;DHT22;25977;45.462;9.210;2023-09-12T03:01:22;26.40;79.80
40257;DHT22;25977;45.462;9.210;2023-09-12T03:03:49;26.40;79.90
40257;DHT22;25977;45.462;9.210;2023-09-12T03:06:15;26.40;80.00
40257;DHT22;25977;45.462;9.210;2023-09-12T03:08:41;26.40;80.10
40257;DHT22;25977;45.462;9.210;2023-09-12T03:11:07;26.40;80.40
40257;DHT22;25977;45.462;9.210;2023-09-12T03:13:34;26.40;80.70
40257;DHT22;25977;45.462;9.210;2023-09-12T03:16:00;26.40;81.00
40257;DHT22;25977;45.462;9.210;2023-09-12T03:18:26;26.30;81.10
40257;DHT22;25977;45.462;9.210;2023-09-12T03:20:53;26.30;81.50
40257;DHT22;25977;45.462;9.210;2023-09-12T03:23:20;26.10;81.60
40257;DHT22;25977;45.462;9.210;2023-09-12T03:25:45;26.10;82.00
40257;DHT22;25977;45.462;9.210;2023-09-12T03:28:12;26.10;81.80
40257;DHT22;25977;45.462;9.210;2023-09-12T03:30:38;26.10;81.70
40257;DHT22;25977;45.462;9.210;2023-09-12T03:33:05;26.10;81.70
40257;DHT22;25977;45.462;9.210;2023-09-12T03:35:34;26.10;81.80
40257;DHT22;25977;45.462;9.210;2023-09-12T03:38:00;26.00;81.90
40257;DHT22;25977;45.462;9.210;2023-09-12T03:40:28;25.90;82.20
40257;DHT22;25977;45.462;9.210;2023-09-12T03:42:56;25.90;82.40
40257;DHT22;25977;45.462;9.210;2023-09-12T03:45:22;25.80;82.40
40257;DHT22;25977;45.462;9.210;2023-09-12T03:47:48;25.80;82.50
40257;DHT22;25977;45.462;9.210;2023-09-12T03:50:15;25.80;82.50
40257;DHT22;25977;45.462;9.210;2023-09-12T03:52:41;25.90;82.60
40257;DHT22;25977;45.462;9.210;2023-09-12T03:55:07;25.80;82.50
40257;DHT22;25977;45.462;9.210;2023-09-12T03:57:33;25.80;82.60
40257;DHT22;25977;45.462;9.210;2023-09-12T03:59:59;25.80;82.60
40257;DHT22;25977;45.462;9.210;2023-09-12T04:02:24;25.80;82.80
40257;DHT22;25977;45.462;9.210;2023-09-12T04:04:50;25.80;82.90
40257;DHT22;25977;45.462;9.210;2023-09-12T04:07:18;25.70;83.10
40257;DHT22;25977;45.462;9.210;2023-09-12T04:09:43;25.70;83.10
40257;DHT22;25977;45.462;9.210;2023-09-12T04:12:09;25.60;83.10
40257;DHT22;25977;45.462;9.210;2023-09-12T04:14:35;25.60;83.30
40257;DHT22;25977;45.462;9.210;2023-09-12T04:17:01;25.60;83.30
40257;DHT22;25977;45.462;9.210;2023-09-12T04:19:27;25.50;83.50
40257;DHT22;25977;45.462;9.210;2023-09-12T04:21:53;25.50;83.70
40257;DHT22;25977;45.462;9.210;2023-09-12T04:24:18;25.50;83.60
40257;DHT22;25977;45.462;9.210;2023-09-12T04:26:44;25.50;83.50
40257;DHT22;25977;45.462;9.210;2023-09-12T04:29:10;25.50;83.50
40257;DHT22;25977;45.462;9.210;2023-09-12T04:31:36;25.50;83.50
40257;DHT22;25977;45.462;9.210;2023-09-12T04:34:02;25.50;83.50
40257;DHT22;25977;45.462;9.210;2023-09-12T04:36:28;25.50;83.70
40257;DHT22;25977;45.462;9.210;2023-09-12T04:38:54;25.50;83.60
40257;DHT22;25977;45.462;9.210;2023-09-12T04:41:20;25.50;83.70
40257;DHT22;25977;45.462;9.210;2023-09-12T04:43:46;25.40;83.80
40257;DHT22;25977;45.462;9.210;2023-09-12T04:46:12;25.50;83.90
40257;DHT22;25977;45.462;9.210;2023-09-12T04:48:38;25.50;83.90
40257;DHT22;25977;45.462;9.210;2023-09-12T04:51:04;25.50;83.70
40257;DHT22;25977;45.462;9.210;2023-09-12T04:53:31;25.30;83.60
40257;DHT22;25977;45.462;9.210;2023-09-12T04:56:04;25.40;83.80
40257;DHT22;25977;45.462;9.210;2023-09-12T04:58:32;25.40;83.70
40257;DHT22;25977;45.462;9.210;2023-09-12T05:00:58;25.40;83.80
40257;DHT22;25977;45.462;9.210;2023-09-12T05:03:23;25.40;84.40
40257;DHT22;25977;45.462;9.210;2023-09-12T05:05:50;25.40;83.80
40257;DHT22;25977;45.462;9.210;2023-09-12T05:08:16;25.30;83.80
40257;DHT22;25977;45.462;9.210;2023-09-12T05:10:47;25.40;83.80
40257;DHT22;25977;45.462;9.210;2023-09-12T05:13:13;25.40;83.60
40257;DHT22;25977;45.462;9.210;2023-09-12T05:15:40;25.40;83.60
40257;DHT22;25977;45.462;9.210;2023-09-12T05:18:06;25.40;83.50
40257;DHT22;25977;45.462;9.210;2023-09-12T05:20:33;25.40;83.50
40257;DHT22;25977;45.462;9.210;2023-09-12T05:22:59;25.40;83.50
40257;DHT22;25977;45.462;9.210;2023-09-12T05:25:24;25.50;83.50
40257;DHT22;25977;45.462;9.210;2023-09-12T05:27:52;25.40;83.30
40257;DHT22;25977;45.462;9.210;2023-09-12T05:30:18;25.50;83.30
40257;DHT22;25977;45.462;9.210;2023-09-12T05:32:43;25.50;83.20
40257;DHT22;25977;45.462;9.210;2023-09-12T05:35:10;25.50;83.10
40257;DHT22;25977;45.462;9.210;2023-09-12T05:37:35;25.50;83.20
40257;DHT22;25977;45.462;9.210;2023-09-12T05:40:01;25.50;83.20
40257;DHT22;25977;45.462;9.210;2023-09-12T05:42:27;25.50;83.20
40257;DHT22;25977;45.462;9.210;2023-09-12T05:44:53;25.50;83.20
40257;DHT22;25977;45.462;9.210;2023-09-12T05:47:20;25.60;83.10
40257;DHT22;25977;45.462;9.210;2023-09-12T05:49:46;25.60;83.10
40257;DHT22;25977;45.462;9.210;2023-09-12T05:52:12;25.60;83.10
40257;DHT22;25977;45.462;9.210;2023-09-12T05:54:39;25.60;82.90
40257;DHT22;25977;45.462;9.210;2023-09-12T05:57:06;25.50;82.80
40257;DHT22;25977;45.462;9.210;2023-09-12T05:59:34;25.60;82.70
40257;DHT22;25977;45.462;9.210;2023-09-12T06:02:00;25.70;82.70
40257;DHT22;25977;45.462;9.210;2023-09-12T06:04:25;25.70;82.70
40257;DHT22;25977;45.462;9.210;2023-09-12T06:06:51;25.70;82.30
40257;DHT22;25977;45.462;9.210;2023-09-12T06:09:17;25.70;82.20
40257;DHT22;25977;45.462;9.210;2023-09-12T06:11:42;25.70;82.20
40257;DHT22;25977;45.462;9.210;2023-09-12T06:14:08;25.70;82.00
40257;DHT22;25977;45.462;9.210;2023-09-12T06:16:34;25.70;82.10
40257;DHT22;25977;45.462;9.210;2023-09-12T06:18:59;25.70;81.90
40257;DHT22;25977;45.462;9.210;2023-09-12T06:21:25;25.80;81.70
40257;DHT22;25977;45.462;9.210;2023-09-12T06:24:11;25.90;81.50
40257;DHT22;25977;45.462;9.210;2023-09-12T06:26:37;26.00;81.30
40257;DHT22;25977;45.462;9.210;2023-09-12T06:29:03;25.90;81.10
40257;DHT22;25977;45.462;9.210;2023-09-12T06:31:29;26.10;81.50
40257;DHT22;25977;45.462;9.210;2023-09-12T06:33:55;26.90;79.80
40257;DHT22;25977;45.462;9.210;2023-09-12T06:36:21;27.60;78.40
40257;DHT22;25977;45.462;9.210;2023-09-12T06:38:47;28.30;76.30
40257;DHT22;25977;45.462;9.210;2023-09-12T06:41:13;28.60;75.30
40257;DHT22;25977;45.462;9.210;2023-09-12T06:43:39;28.80;74.30
40257;DHT22;25977;45.462;9.210;2023-09-12T06:46:04;28.90;74.00
40257;DHT22;25977;45.462;9.210;2023-09-12T06:48:30;28.80;74.40
40257;DHT22;25977;45.462;9.210;2023-09-12T06:50:56;28.70;74.70
40257;DHT22;25977;45.462;9.210;2023-09-12T06:53:21;28.80;75.10
40257;DHT22;25977;45.462;9.210;2023-09-12T06:55:47;27.90;75.90
40257;DHT22;25977;45.462;9.210;2023-09-12T06:58:13;27.90;76.30
40257;DHT22;25977;45.462;9.210;2023-09-12T07:00:39;27.60;76.10
40257;DHT22;25977;45.462;9.210;2023-09-12T07:03:04;27.50;77.00
40257;DHT22;25977;45.462;9.210;2023-09-12T07:05:30;27.80;75.70
40257;DHT22;25977;45.462;9.210;2023-09-12T07:07:55;28.50;74.80
40257;DHT22;25977;45.462;9.210;2023-09-12T07:10:21;29.20;73.30
40257;DHT22;25977;45.462;9.210;2023-09-12T07:12:47;29.40;72.70
40257;DHT22;25977;45.462;9.210;2023-09-12T07:15:13;30.50;71.10
40257;DHT22;25977;45.462;9.210;2023-09-12T07:17:39;30.80;71.10
40257;DHT22;25977;45.462;9.210;2023-09-12T07:20:05;31.00;70.80
40257;DHT22;25977;45.462;9.210;2023-09-12T07:22:37;31.70;70.10
40257;DHT22;25977;45.462;9.210;2023-09-12T07:25:04;32.20;69.20
40257;DHT22;25977;45.462;9.210;2023-09-12T07:27:30;32.30;68.90
40257;DHT22;25977;45.462;9.210;2023-09-12T07:29:56;32.80;68.60
40257;DHT22;25977;45.462;9.210;2023-09-12T07:32:22;33.00;68.30
40257;DHT22;25977;45.462;9.210;2023-09-12T07:34:48;33.00;68.30
40257;DHT22;25977;45.462;9.210;2023-09-12T07:37:14;32.50;68.60
40257;DHT22;25977;45.462;9.210;2023-09-12T07:39:40;31.80;69.40
40257;DHT22;25977;45.462;9.210;2023-09-12T07:42:05;31.50;69.90
40257;DHT22;25977;45.462;9.210;2023-09-12T07:44:31;31.30;70.10
40257;DHT22;25977;45.462;9.210;2023-09-12T07:46:57;31.20;70.40
40257;DHT22;25977;45.462;9.210;2023-09-12T07:49:22;31.10;70.40
40257;DHT22;25977;45.462;9.210;2023-09-12T07:51:51;30.90;70.50
40257;DHT22;25977;45.462;9.210;2023-09-12T07:54:17;30.60;70.50
40257;DHT22;25977;45.462;9.210;2023-09-12T07:56:43;30.50;70.70
40257;DHT22;25977;45.462;9.210;2023-09-12T07:59:09;30.20;71.10
40257;DHT22;25977;45.462;9.210;2023-09-12T08:01:36;30.10;71.50
40257;DHT22;25977;45.462;9.210;2023-09-12T08:04:02;30.00;71.50
40257;DHT22;25977;45.462;9.210;2023-09-12T08:06:28;30.00;73.20
40257;DHT22;25977;45.462;9.210;2023-09-12T08:08:54;30.00;73.10
40257;DHT22;25977;45.462;9.210;2023-09-12T08:11:20;29.90;72.00
40257;DHT22;25977;45.462;9.210;2023-09-12T08:13:48;29.90;71.70
40257;DHT22;25977;45.462;9.210;2023-09-12T08:16:15;29.80;71.70
40257;DHT22;25977;45.462;9.210;2023-09-12T08:18:41;29.80;71.70
40257;DHT22;25977;45.462;9.210;2023-09-12T08:21:07;29.80;72.30
40257;DHT22;25977;45.462;9.210;2023-09-12T08:23:32;29.80;73.30
40257;DHT22;25977;45.462;9.210;2023-09-12T08:25:58;29.80;72.90
40257;DHT22;25977;45.462;9.210;2023-09-12T08:28:24;29.80;73.90
40257;DHT22;25977;45.462;9.210;2023-09-12T08:30:49;29.80;73.00
40257;DHT22;25977;45.462;9.210;2023-09-12T08:33:15;29.90;73.30
40257;DHT22;25977;45.462;9.210;2023-09-12T08:35:41;29.90;72.90
40257;DHT22;25977;45.462;9.210;2023-09-12T08:38:06;30.00;72.70
40257;DHT22;25977;45.462;9.210;2023-09-12T08:40:35;30.10;72.90
40257;DHT22;25977;45.462;9.210;2023-09-12T08:43:01;30.20;73.20
40257;DHT22;25977;45.462;9.210;2023-09-12T08:45:29;30.30;72.80
40257;DHT22;25977;45.462;9.210;2023-09-12T08:47:56;30.40;73.30
40257;DHT22;25977;45.462;9.210;2023-09-12T08:50:22;30.40;72.80
40257;DHT22;25977;45.462;9.210;2023-09-12T08:52:49;30.50;72.90
40257;DHT22;25977;45.462;9.210;2023-09-12T08:55:15;30.50;72.50
40257;DHT22;25977;45.462;9.210;2023-09-12T08:57:43;30.50;72.50
40257;DHT22;25977;45.462;9.210;2023-09-12T09:00:09;30.50;72.50
40257;DHT22;25977;45.462;9.210;2023-09-12T09:02:38;30.50;72.10
40257;DHT22;25977;45.462;9.210;2023-09-12T09:05:06;30.50;72.60
40257;DHT22;25977;45.462;9.210;2023-09-12T09:07:40;30.50;72.20
40257;DHT22;25977;45.462;9.210;2023-09-12T09:10:09;30.40;71.50
40257;DHT22;25977;45.462;9.210;2023-09-12T09:12:35;30.30;71.80
40257;DHT22;25977;45.462;9.210;2023-09-12T09:15:23;30.20;71.40
40257;DHT22;25977;45.462;9.210;2023-09-12T09:17:51;30.20;71.20
40257;DHT22;25977;45.462;9.210;2023-09-12T09:20:31;30.20;71.20
40257;DHT22;25977;45.462;9.210;2023-09-12T09:23:04;30.20;70.40
40257;DHT22;25977;45.462;9.210;2023-09-12T09:25:33;30.40;70.50
40257;DHT22;25977;45.462;9.210;2023-09-12T09:28:07;30.40;69.20
40257;DHT22;25977;45.462;9.210;2023-09-12T09:30:42;30.50;69.00
40257;DHT22;25977;45.462;9.210;2023-09-12T09:33:11;30.60;68.90
40257;DHT22;25977;45.462;9.210;2023-09-12T09:35:37;30.60;68.50
40257;DHT22;25977;45.462;9.210;2023-09-12T09:38:05;30.70;67.40
40257;DHT22;25977;45.462;9.210;2023-09-12T09:40:34;30.70;67.40
40257;DHT22;25977;45.462;9.210;2023-09-12T09:43:04;30.80;67.10
40257;DHT22;25977;45.462;9.210;2023-09-12T09:45:32;30.80;66.90
40257;DHT22;25977;45.462;9.210;2023-09-12T09:48:10;30.80;66.80
40257;DHT22;25977;45.462;9.210;2023-09-12T09:50:42;30.80;66.70
40257;DHT22;25977;45.462;9.210;2023-09-12T09:53:08;30.90;66.30
40257;DHT22;25977;45.462;9.210;2023-09-12T09:55:35;30.80;63.70
40257;DHT22;25977;45.462;9.210;2023-09-12T09:58:02;30.80;65.20
40257;DHT22;25977;45.462;9.210;2023-09-12T10:00:29;30.80;64.70
40257;DHT22;25977;45.462;9.210;2023-09-12T10:02:55;30.80;64.80
40257;DHT22;25977;45.462;9.210;2023-09-12T10:05:22;30.90;64.80
40257;DHT22;25977;45.462;9.210;2023-09-12T10:07:49;30.90;65.00
40257;DHT22;25977;45.462;9.210;2023-09-12T10:10:18;30.90;65.50
40257;DHT22;25977;45.462;9.210;2023-09-12T10:12:57;30.80;65.90
40257;DHT22;25977;45.462;9.210;2023-09-12T10:15:27;30.80;66.30
40257;DHT22;25977;45.462;9.210;2023-09-12T10:17:59;30.80;67.20
40257;DHT22;25977;45.462;9.210;2023-09-12T10:20:45;30.80;68.00
40257;DHT22;25977;45.462;9.210;2023-09-12T10:23:26;30.80;66.90
40257;DHT22;25977;45.462;9.210;2023-09-12T10:25:54;30.70;67.20
40257;DHT22;25977;45.462;9.210;2023-09-12T10:28:21;30.70;67.40
40257;DHT22;25977;45.462;9.210;2023-09-12T10:30:47;30.70;67.60
40257;DHT22;25977;45.462;9.210;2023-09-12T10:33:15;30.70;67.50
40257;DHT22;25977;45.462;9.210;2023-09-12T10:35:43;30.70;67.40
40257;DHT22;25977;45.462;9.210;2023-09-12T10:38:10;30.80;67.60
40257;DHT22;25977;45.462;9.210;2023-09-12T10:40:40;30.80;67.90
40257;DHT22;25977;45.462;9.210;2023-09-12T10:43:06;30.80;67.70
40257;DHT22;25977;45.462;9.210;2023-09-12T10:45:36;30.80;67.70
40257;DHT22;25977;45.462;9.210;2023-09-12T10:48:03;30.80;68.50
40257;DHT22;25977;45.462;9.210;2023-09-12T10:50:29;30.70;67.70
40257;DHT22;25977;45.462;9.210;2023-09-12T10:52:55;30.70;67.20
40257;DHT22;25977;45.462;9.210;2023-09-12T10:55:21;30.70;67.10
40257;DHT22;25977;45.462;9.210;2023-09-12T10:58:03;30.60;66.50
40257;DHT22;25977;45.462;9.210;2023-09-12T11:00:30;30.70;67.40
40257;DHT22;25977;45.462;9.210;2023-09-12T11:02:59;30.60;67.50
40257;DHT22;25977;45.462;9.210;2023-09-12T11:08:01;30.80;67.70
40257;DHT22;25977;45.462;9.210;2023-09-12T11:10:27;30.70;67.90
40257;DHT22;25977;45.462;9.210;2023-09-12T11:12:55;30.70;68.10
40257;DHT22;25977;45.462;9.210;2023-09-12T11:15:27;30.60;67.70
40257;DHT22;25977;45.462;9.210;2023-09-12T11:18:05;30.60;67.60
40257;DHT22;25977;45.462;9.210;2023-09-12T11:20:59;30.60;68.00
40257;DHT22;25977;45.462;9.210;2023-09-12T11:23:25;30.50;66.70
40257;DHT22;25977;45.462;9.210;2023-09-12T11:26:07;30.50;67.30
40257;DHT22;25977;45.462;9.210;2023-09-12T11:28:33;30.50;66.80
40257;DHT22;25977;45.462;9.210;2023-09-12T11:30:59;30.50;66.60
40257;DHT22;25977;45.462;9.210;2023-09-12T11:33:25;30.70;67.50
40257;DHT22;25977;45.462;9.210;2023-09-12T11:35:55;30.80;67.30
40257;DHT22;25977;45.462;9.210;2023-09-12T11:38:27;30.80;66.50
40257;DHT22;25977;45.462;9.210;2023-09-12T11:40:54;30.70;66.00
40257;DHT22;25977;45.462;9.210;2023-09-12T11:43:22;30.60;66.30
40257;DHT22;25977;45.462;9.210;2023-09-12T11:45:48;30.60;65.60
40257;DHT22;25977;45.462;9.210;2023-09-12T11:48:14;30.50;66.00
40257;DHT22;25977;45.462;9.210;2023-09-12T11:50:40;30.50;65.90
40257;DHT22;25977;45.462;9.210;2023-09-12T11:53:10;30.40;66.70
40257;DHT22;25977;45.462;9.210;2023-09-12T11:55:50;30.50;66.80
40257;DHT22;25977;45.462;9.210;2023-09-12T11:58:19;30.40;67.00
40257;DHT22;25977;45.462;9.210;2023-09-12T12:00:48;30.40;66.00
40257;DHT22;25977;45.462;9.210;2023-09-12T12:03:15;30.40;65.60
40257;DHT22;25977;45.462;9.210;2023-09-12T12:05:41;30.40;65.30
40257;DHT22;25977;45.462;9.210;2023-09-12T12:08:11;30.50;64.80
40257;DHT22;25977;45.462;9.210;2023-09-12T12:10:37;30.50;65.10
40257;DHT22;25977;45.462;9.210;2023-09-12T12:13:16;30.60;65.50
40257;DHT22;25977;45.462;9.210;2023-09-12T12:15:42;30.70;64.60
40257;DHT22;25977;45.462;9.210;2023-09-12T12:18:07;30.70;64.40
40257;DHT22;25977;45.462;9.210;2023-09-12T12:20:33;30.70;65.20
40257;DHT22;25977;45.462;9.210;2023-09-12T12:22:59;30.70;65.20
40257;DHT22;25977;45.462;9.210;2023-09-12T12:25:24;30.80;65.00
40257;DHT22;25977;45.462;9.210;2023-09-12T12:27:50;30.80;64.50
40257;DHT22;25977;45.462;9.210;2023-09-12T12:30:17;30.80;64.40
40257;DHT22;25977;45.462;9.210;2023-09-12T12:32:49;30.80;64.10
40257;DHT22;25977;45.462;9.210;2023-09-12T12:35:19;30.70;64.40
40257;DHT22;25977;45.462;9.210;2023-09-12T12:37:45;30.70;63.90
40257;DHT22;25977;45.462;9.210;2023-09-12T12:40:14;30.70;63.80
40257;DHT22;25977;45.462;9.210;2023-09-12T12:42:41;30.50;64.00
40257;DHT22;25977;45.462;9.210;2023-09-12T12:45:13;30.50;63.90
40257;DHT22;25977;45.462;9.210;2023-09-12T12:47:39;30.50;64.30
40257;DHT22;25977;45.462;9.210;2023-09-12T12:50:11;30.60;64.20
40257;DHT22;25977;45.462;9.210;2023-09-12T12:52:37;30.50;64.10
40257;DHT22;25977;45.462;9.210;2023-09-12T12:55:13;30.50;63.80
40257;DHT22;25977;45.462;9.210;2023-09-12T12:57:41;30.40;64.00
40257;DHT22;25977;45.462;9.210;2023-09-12T13:02:33;30.50;64.10
40257;DHT22;25977;45.462;9.210;2023-09-12T13:04:59;30.60;64.10
40257;DHT22;25977;45.462;9.210;2023-09-12T13:07:25;30.60;64.60
40257;DHT22;25977;45.462;9.210;2023-09-12T13:09:50;30.60;64.10
40257;DHT22;25977;45.462;9.210;2023-09-12T13:12:16;30.60;64.30
40257;DHT22;25977;45.462;9.210;2023-09-12T13:14:43;30.70;64.40
40257;DHT22;25977;45.462;9.210;2023-09-12T13:17:09;30.70;64.60
40257;DHT22;25977;45.462;9.210;2023-09-12T13:19:35;30.50;64.50
40257;DHT22;25977;45.462;9.210;2023-09-12T13:22:01;30.50;64.50
40257;DHT22;25977;45.462;9.210;2023-09-12T13:24:27;30.60;64.80
40257;DHT22;25977;45.462;9.210;2023-09-12T13:26:52;30.70;64.60
40257;DHT22;25977;45.462;9.210;2023-09-12T13:29:19;30.80;64.70
40257;DHT22;25977;45.462;9.210;2023-09-12T13:31:45;30.90;64.70
40257;DHT22;25977;45.462;9.210;2023-09-12T13:34:11;31.00;64.30
40257;DHT22;25977;45.462;9.210;2023-09-12T13:36:36;31.10;64.50
40257;DHT22;25977;45.462;9.210;2023-09-12T13:39:02;31.10;64.50
40257;DHT22;25977;45.462;9.210;2023-09-12T13:41:29;31.20;64.50
40257;DHT22;25977;45.462;9.210;2023-09-12T13:43:55;31.20;64.00
40257;DHT22;25977;45.462;9.210;2023-09-12T13:46:20;31.10;64.20
40257;DHT22;25977;45.462;9.210;2023-09-12T13:48:46;31.20;64.60
40257;DHT22;25977;45.462;9.210;2023-09-12T13:51:12;31.20;64.40
40257;DHT22;25977;45.462;9.210;2023-09-12T13:53:38;31.10;64.20
40257;DHT22;25977;45.462;9.210;2023-09-12T13:56:05;31.10;64.30
40257;DHT22;25977;45.462;9.210;2023-09-12T13:58:31;31.10;64.40
40257;DHT22;25977;45.462;9.210;2023-09-12T14:00:59;31.10;64.40
40257;DHT22;25977;45.462;9.210;2023-09-12T14:03:25;31.10;64.20
40257;DHT22;25977;45.462;9.210;2023-09-12T14:05:51;31.10;64.50
40257;DHT22;25977;45.462;9.210;2023-09-12T14:08:17;31.00;64.50
40257;DHT22;25977;45.462;9.210;2023-09-12T14:10:43;31.00;64.60
40257;DHT22;25977;45.462;9.210;2023-09-12T14:13:09;30.90;64.50
40257;DHT22;25977;45.462;9.210;2023-09-12T14:15:34;30.80;64.30
40257;DHT22;25977;45.462;9.210;2023-09-12T14:18:00;30.70;64.90
40257;DHT22;25977;45.462;9.210;2023-09-12T14:20:26;30.70;64.90
40257;DHT22;25977;45.462;9.210;2023-09-12T14:22:51;30.80;65.30
40257;DHT22;25977;45.462;9.210;2023-09-12T14:25:17;30.80;65.20
40257;DHT22;25977;45.462;9.210;2023-09-12T14:27:43;30.80;65.10
40257;DHT22;25977;45.462;9.210;2023-09-12T14:30:10;30.80;65.20
40257;DHT22;25977;45.462;9.210;2023-09-12T14:32:38;30.70;64.90
40257;DHT22;25977;45.462;9.210;2023-09-12T14:35:04;30.60;65.00
40257;DHT22;25977;45.462;9.210;2023-09-12T14:37:30;30.70;65.40
40257;DHT22;25977;45.462;9.210;2023-09-12T14:39:56;30.80;65.30
40257;DHT22;25977;45.462;9.210;2023-09-12T14:42:22;30.80;64.70
40257;DHT22;25977;45.462;9.210;2023-09-12T14:44:48;30.70;65.10
40257;DHT22;25977;45.462;9.210;2023-09-12T14:47:13;30.70;65.20
40257;DHT22;25977;45.462;9.210;2023-09-12T14:49:39;30.60;64.50
40257;DHT22;25977;45.462;9.210;2023-09-12T14:52:05;30.70;64.80
40257;DHT22;25977;45.462;9.210;2023-09-12T14:54:31;30.70;64.90
40257;DHT22;25977;45.462;9.210;2023-09-12T14:56:56;30.60;64.50
40257;DHT22;25977;45.462;9.210;2023-09-12T14:59:22;30.70;65.00
40257;DHT22;25977;45.462;9.210;2023-09-12T15:01:47;30.60;64.90
40257;DHT22;25977;45.462;9.210;2023-09-12T15:04:13;30.60;65.20
40257;DHT22;25977;45.462;9.210;2023-09-12T15:06:39;30.60;65.20
40257;DHT22;25977;45.462;9.210;2023-09-12T15:09:05;30.60;65.20
40257;DHT22;25977;45.462;9.210;2023-09-12T15:11:31;30.60;65.50
40257;DHT22;25977;45.462;9.210;2023-09-12T15:13:58;30.60;65.70
40257;DHT22;25977;45.462;9.210;2023-09-12T15:16:25;30.60;65.70
40257;DHT22;25977;45.462;9.210;2023-09-12T15:18:50;30.50;65.50
40257;DHT22;25977;45.462;9.210;2023-09-12T15:21:17;30.50;65.80
40257;DHT22;25977;45.462;9.210;2023-09-12T15:23:43;30.50;66.00
40257;DHT22;25977;45.462;9.210;2023-09-12T15:26:08;30.40;66.00
40257;DHT22;25977;45.462;9.210;2023-09-12T15:28:34;30.40;66.10
40257;DHT22;25977;45.462;9.210;2023-09-12T15:31:00;30.40;66.20
40257;DHT22;25977;45.462;9.210;2023-09-12T15:33:29;30.40;66.30
40257;DHT22;25977;45.462;9.210;2023-09-12T15:35:55;30.40;66.20
40257;DHT22;25977;45.462;9.210;2023-09-12T15:38:21;30.40;66.10
40257;DHT22;25977;45.462;9.210;2023-09-12T15:40:46;30.40;65.70